Terminal Aerodrome Forecast
Issued by NWS Charleston, WV

Current Version | Previous Version | Text Only | Print | Product List | Glossary Off
Versions: 1 2 3 4 5 6 7 8 9 10 11 12 13 14 15 16 17 18 19 20 21 22

298
FTUS41 KRLX 010243 AAA
TAFBKW
TAF AMD
KBKW 010243Z 0103/0124 24007KT 6SM -SHRA OVC060
     FM010300 26015G30KT 4SM SHRA OVC025
     FM010400 29008KT P6SM BKN050
     FM011200 28008KT P6SM BKN025
     FM011800 28010G16KT P6SM OVC035=

USA.gov is the U.S. government's official web portal to all federal, state and local government web resources and services.